sensor_id;sensor_type;location;lat;lon;timestamp;P1;durP1;ratioP1;P2;durP2;ratioP2
53775;SDS011;44276;49.534;6.378;2023-03-14T00:01:11;10.48;;;1.60;;
53775;SDS011;44276;49.534;6.378;2023-03-14T00:03:44;3.92;;;1.33;;
53775;SDS011;44276;49.534;6.378;2023-03-14T00:06:16;8.10;;;1.63;;
53775;SDS011;44276;49.534;6.378;2023-03-14T00:08:56;10.00;;;3.17;;
53775;SDS011;44276;49.534;6.378;2023-03-14T00:11:25;7.30;;;1.40;;
53775;SDS011;44276;49.534;6.378;2023-03-14T00:13:53;5.47;;;1.60;;
53775;SDS011;44276;49.534;6.378;2023-03-14T00:16:23;7.50;;;1.63;;
53775;SDS011;44276;49.534;6.378;2023-03-14T00:18:51;7.72;;;2.08;;
53775;SDS011;44276;49.534;6.378;2023-03-14T00:21:19;6.85;;;1.90;;
53775;SDS011;44276;49.534;6.378;2023-03-14T00:23:47;6.15;;;1.88;;
53775;SDS011;44276;49.534;6.378;2023-03-14T00:26:17;13.05;;;2.70;;
53775;SDS011;44276;49.534;6.378;2023-03-14T00:28:50;7.30;;;1.58;;
53775;SDS011;44276;49.534;6.378;2023-03-14T00:31:20;10.02;;;1.88;;
53775;SDS011;44276;49.534;6.378;2023-03-14T00:33:51;7.88;;;1.70;;
53775;SDS011;44276;49.534;6.378;2023-03-14T00:36:22;8.38;;;1.73;;
53775;SDS011;44276;49.534;6.378;2023-03-14T00:38:51;5.40;;;1.98;;
53775;SDS011;44276;49.534;6.378;2023-03-14T00:41:20;7.03;;;1.60;;
53775;SDS011;44276;49.534;6.378;2023-03-14T00:43:52;3.20;;;1.30;;
53775;SDS011;44276;49.534;6.378;2023-03-14T00:46:20;6.50;;;2.25;;
53775;SDS011;44276;49.534;6.378;2023-03-14T00:48:56;6.18;;;1.73;;
53775;SDS011;44276;49.534;6.378;2023-03-14T00:51:24;13.95;;;2.58;;
53775;SDS011;44276;49.534;6.378;2023-03-14T00:53:53;10.20;;;1.38;;
53775;SDS011;44276;49.534;6.378;2023-03-14T00:56:26;7.00;;;1.33;;
53775;SDS011;44276;49.534;6.378;2023-03-14T00:59:00;5.32;;;3.25;;
53775;SDS011;44276;49.534;6.378;2023-03-14T01:01:37;8.10;;;2.17;;
53775;SDS011;44276;49.534;6.378;2023-03-14T01:04:09;10.60;;;2.75;;
53775;SDS011;44276;49.534;6.378;2023-03-14T01:06:44;7.07;;;1.27;;
53775;SDS011;44276;49.534;6.378;2023-03-14T01:09:30;9.05;;;2.35;;
53775;SDS011;44276;49.534;6.378;2023-03-14T01:12:04;6.55;;;1.52;;
53775;SDS011;44276;49.534;6.378;2023-03-14T01:14:45;12.07;;;1.80;;
53775;SDS011;44276;49.534;6.378;2023-03-14T01:17:21;13.70;;;1.83;;
53775;SDS011;44276;49.534;6.378;2023-03-14T01:19:50;8.57;;;1.95;;
53775;SDS011;44276;49.534;6.378;2023-03-14T01:22:30;5.43;;;1.05;;
53775;SDS011;44276;49.534;6.378;2023-03-14T01:25:20;3.63;;;1.95;;
53775;SDS011;44276;49.534;6.378;2023-03-14T01:27:49;4.10;;;1.23;;
53775;SDS011;44276;49.534;6.378;2023-03-14T01:30:17;10.35;;;2.88;;
53775;SDS011;44276;49.534;6.378;2023-03-14T01:32:46;8.32;;;3.15;;
53775;SDS011;44276;49.534;6.378;2023-03-14T01:35:14;7.18;;;1.70;;
53775;SDS011;44276;49.534;6.378;2023-03-14T01:37:43;6.05;;;1.42;;
53775;SDS011;44276;49.534;6.378;2023-03-14T01:40:11;10.55;;;1.88;;
53775;SDS011;44276;49.534;6.378;2023-03-14T01:42:45;18.67;;;2.88;;
53775;SDS011;44276;49.534;6.378;2023-03-14T01:48:45;8.77;;;2.53;;
53775;SDS011;44276;49.534;6.378;2023-03-14T01:51:21;9.38;;;1.60;;
53775;SDS011;44276;49.534;6.378;2023-03-14T01:53:59;6.60;;;1.53;;
53775;SDS011;44276;49.534;6.378;2023-03-14T01:56:37;11.93;;;2.05;;
53775;SDS011;44276;49.534;6.378;2023-03-14T01:59:09;7.03;;;2.03;;
53775;SDS011;44276;49.534;6.378;2023-03-14T02:01:40;8.23;;;1.55;;
53775;SDS011;44276;49.534;6.378;2023-03-14T02:04:14;7.28;;;1.08;;
53775;SDS011;44276;49.534;6.378;2023-03-14T02:06:48;14.95;;;1.90;;
53775;SDS011;44276;49.534;6.378;2023-03-14T02:09:22;13.70;;;1.48;;
53775;SDS011;44276;49.534;6.378;2023-03-14T02:11:51;12.55;;;1.98;;
53775;SDS011;44276;49.534;6.378;2023-03-14T02:14:22;6.13;;;1.55;;
53775;SDS011;44276;49.534;6.378;2023-03-14T02:16:59;8.02;;;1.10;;
53775;SDS011;44276;49.534;6.378;2023-03-14T02:19:39;5.50;;;1.02;;
53775;SDS011;44276;49.534;6.378;2023-03-14T02:22:22;4.03;;;1.63;;
53775;SDS011;44276;49.534;6.378;2023-03-14T02:24:58;4.60;;;0.98;;
53775;SDS011;44276;49.534;6.378;2023-03-14T02:27:36;5.65;;;1.88;;
53775;SDS011;44276;49.534;6.378;2023-03-14T02:30:06;8.35;;;2.42;;
53775;SDS011;44276;49.534;6.378;2023-03-14T02:32:40;7.20;;;1.35;;
53775;SDS011;44276;49.534;6.378;2023-03-14T02:35:14;9.05;;;2.67;;
53775;SDS011;44276;49.534;6.378;2023-03-14T02:37:48;12.02;;;2.75;;
53775;SDS011;44276;49.534;6.378;2023-03-14T02:40:23;7.82;;;1.73;;
53775;SDS011;44276;49.534;6.378;2023-03-14T02:42:52;7.22;;;1.40;;
53775;SDS011;44276;49.534;6.378;2023-03-14T02:48:14;9.68;;;1.83;;
53775;SDS011;44276;49.534;6.378;2023-03-14T02:50:46;9.13;;;1.63;;
53775;SDS011;44276;49.534;6.378;2023-03-14T02:53:18;5.30;;;1.38;;
53775;SDS011;44276;49.534;6.378;2023-03-14T02:55:51;6.90;;;1.98;;
53775;SDS011;44276;49.534;6.378;2023-03-14T02:58:20;4.35;;;1.20;;
53775;SDS011;44276;49.534;6.378;2023-03-14T03:00:49;9.30;;;1.85;;
53775;SDS011;44276;49.534;6.378;2023-03-14T03:03:17;12.65;;;2.05;;
53775;SDS011;44276;49.534;6.378;2023-03-14T03:05:47;14.80;;;2.65;;
53775;SDS011;44276;49.534;6.378;2023-03-14T03:08:17;8.98;;;1.50;;
53775;SDS011;44276;49.534;6.378;2023-03-14T03:10:46;5.97;;;1.65;;
53775;SDS011;44276;49.534;6.378;2023-03-14T03:13:15;15.38;;;4.60;;
53775;SDS011;44276;49.534;6.378;2023-03-14T03:15:45;7.68;;;1.70;;
53775;SDS011;44276;49.534;6.378;2023-03-14T03:18:13;6.47;;;2.17;;
53775;SDS011;44276;49.534;6.378;2023-03-14T03:20:42;11.77;;;1.77;;
53775;SDS011;44276;49.534;6.378;2023-03-14T03:23:10;11.32;;;2.50;;
53775;SDS011;44276;49.534;6.378;2023-03-14T03:25:38;4.30;;;1.10;;
53775;SDS011;44276;49.534;6.378;2023-03-14T03:28:06;5.72;;;1.25;;
53775;SDS011;44276;49.534;6.378;2023-03-14T03:30:38;7.70;;;1.30;;
53775;SDS011;44276;49.534;6.378;2023-03-14T03:33:08;6.53;;;1.48;;
53775;SDS011;44276;49.534;6.378;2023-03-14T03:35:44;10.90;;;1.77;;
53775;SDS011;44276;49.534;6.378;2023-03-14T03:40:43;5.38;;;1.15;;
53775;SDS011;44276;49.534;6.378;2023-03-14T03:43:11;4.65;;;0.82;;
53775;SDS011;44276;49.534;6.378;2023-03-14T03:45:39;5.78;;;1.35;;
53775;SDS011;44276;49.534;6.378;2023-03-14T03:48:08;4.45;;;1.25;;
53775;SDS011;44276;49.534;6.378;2023-03-14T03:50:36;5.78;;;0.73;;
53775;SDS011;44276;49.534;6.378;2023-03-14T03:53:10;5.68;;;1.00;;
53775;SDS011;44276;49.534;6.378;2023-03-14T03:55:40;6.90;;;0.70;;
53775;SDS011;44276;49.534;6.378;2023-03-14T03:58:09;4.60;;;0.80;;
53775;SDS011;44276;49.534;6.378;2023-03-14T04:00:37;10.85;;;1.80;;
53775;SDS011;44276;49.534;6.378;2023-03-14T04:03:05;4.70;;;0.90;;
53775;SDS011;44276;49.534;6.378;2023-03-14T04:05:35;6.15;;;0.95;;
53775;SDS011;44276;49.534;6.378;2023-03-14T04:08:03;7.65;;;0.82;;
53775;SDS011;44276;49.534;6.378;2023-03-14T04:10:33;3.60;;;0.88;;
53775;SDS011;44276;49.534;6.378;2023-03-14T04:13:02;4.55;;;1.48;;
53775;SDS011;44276;49.534;6.378;2023-03-14T04:15:30;3.97;;;0.90;;
53775;SDS011;44276;49.534;6.378;2023-03-14T04:17:58;6.07;;;0.98;;
53775;SDS011;44276;49.534;6.378;2023-03-14T04:20:26;3.88;;;0.93;;
53775;SDS011;44276;49.534;6.378;2023-03-14T04:22:55;4.18;;;1.42;;
53775;SDS011;44276;49.534;6.378;2023-03-14T04:25:23;5.18;;;1.38;;
53775;SDS011;44276;49.534;6.378;2023-03-14T04:27:51;4.03;;;1.30;;
53775;SDS011;44276;49.534;6.378;2023-03-14T04:30:19;14.55;;;1.67;;
53775;SDS011;44276;49.534;6.378;2023-03-14T04:32:48;3.88;;;0.82;;
53775;SDS011;44276;49.534;6.378;2023-03-14T04:35:16;12.32;;;1.33;;
53775;SDS011;44276;49.534;6.378;2023-03-14T04:37:44;4.25;;;1.13;;
53775;SDS011;44276;49.534;6.378;2023-03-14T04:40:16;7.93;;;1.80;;
53775;SDS011;44276;49.534;6.378;2023-03-14T04:42:45;10.13;;;3.03;;
53775;SDS011;44276;49.534;6.378;2023-03-14T04:45:13;6.55;;;1.23;;
53775;SDS011;44276;49.534;6.378;2023-03-14T04:47:41;9.50;;;1.05;;
53775;SDS011;44276;49.534;6.378;2023-03-14T04:50:10;7.18;;;1.00;;
53775;SDS011;44276;49.534;6.378;2023-03-14T04:52:38;10.40;;;2.80;;
53775;SDS011;44276;49.534;6.378;2023-03-14T04:55:06;4.50;;;0.80;;
53775;SDS011;44276;49.534;6.378;2023-03-14T04:57:36;5.72;;;1.20;;
53775;SDS011;44276;49.534;6.378;2023-03-14T05:00:05;11.20;;;1.20;;
53775;SDS011;44276;49.534;6.378;2023-03-14T05:02:36;7.43;;;0.90;;
53775;SDS011;44276;49.534;6.378;2023-03-14T05:05:05;7.95;;;1.27;;
53775;SDS011;44276;49.534;6.378;2023-03-14T05:07:33;12.00;;;1.40;;
53775;SDS011;44276;49.534;6.378;2023-03-14T05:10:02;9.07;;;2.05;;
53775;SDS011;44276;49.534;6.378;2023-03-14T05:12:30;6.93;;;1.10;;
53775;SDS011;44276;49.534;6.378;2023-03-14T05:15:00;6.63;;;1.30;;
53775;SDS011;44276;49.534;6.378;2023-03-14T05:17:28;6.07;;;0.77;;
53775;SDS011;44276;49.534;6.378;2023-03-14T05:19:56;3.55;;;1.23;;
53775;SDS011;44276;49.534;6.378;2023-03-14T05:22:24;5.80;;;1.17;;
53775;SDS011;44276;49.534;6.378;2023-03-14T05:24:52;8.30;;;1.17;;
53775;SDS011;44276;49.534;6.378;2023-03-14T05:27:22;13.90;;;1.00;;
53775;SDS011;44276;49.534;6.378;2023-03-14T05:29:51;2.97;;;0.82;;
53775;SDS011;44276;49.534;6.378;2023-03-14T05:32:20;3.60;;;1.30;;
53775;SDS011;44276;49.534;6.378;2023-03-14T05:34:48;3.40;;;1.50;;
53775;SDS011;44276;49.534;6.378;2023-03-14T05:37:16;4.53;;;0.82;;
53775;SDS011;44276;49.534;6.378;2023-03-14T05:39:45;5.20;;;1.08;;
53775;SDS011;44276;49.534;6.378;2023-03-14T05:42:13;12.60;;;1.58;;
53775;SDS011;44276;49.534;6.378;2023-03-14T05:44:41;3.22;;;1.10;;
53775;SDS011;44276;49.534;6.378;2023-03-14T05:47:09;2.15;;;0.88;;
53775;SDS011;44276;49.534;6.378;2023-03-14T05:49:38;9.45;;;0.98;;
53775;SDS011;44276;49.534;6.378;2023-03-14T05:52:06;6.25;;;0.75;;
53775;SDS011;44276;49.534;6.378;2023-03-14T05:54:35;4.63;;;1.15;;
53775;SDS011;44276;49.534;6.378;2023-03-14T05:57:03;7.82;;;1.00;;
53775;SDS011;44276;49.534;6.378;2023-03-14T05:59:31;8.07;;;1.80;;
53775;SDS011;44276;49.534;6.378;2023-03-14T06:01:59;10.77;;;0.98;;
53775;SDS011;44276;49.534;6.378;2023-03-14T06:04:27;7.10;;;1.45;;
53775;SDS011;44276;49.534;6.378;2023-03-14T06:06:56;3.08;;;0.80;;
53775;SDS011;44276;49.534;6.378;2023-03-14T06:09:24;2.05;;;0.70;;
53775;SDS011;44276;49.534;6.378;2023-03-14T06:11:53;4.10;;;1.08;;
53775;SDS011;44276;49.534;6.378;2023-03-14T06:14:21;7.93;;;2.03;;
53775;SDS011;44276;49.534;6.378;2023-03-14T06:16:49;3.60;;;1.45;;
53775;SDS011;44276;49.534;6.378;2023-03-14T06:19:17;6.88;;;1.05;;
53775;SDS011;44276;49.534;6.378;2023-03-14T06:21:45;7.40;;;1.23;;
53775;SDS011;44276;49.534;6.378;2023-03-14T06:24:15;4.95;;;1.00;;
53775;SDS011;44276;49.534;6.378;2023-03-14T06:26:43;4.45;;;0.90;;
53775;SDS011;44276;49.534;6.378;2023-03-14T06:29:11;5.60;;;1.08;;
53775;SDS011;44276;49.534;6.378;2023-03-14T06:31:39;5.72;;;1.50;;
53775;SDS011;44276;49.534;6.378;2023-03-14T06:34:07;2.30;;;0.77;;
53775;SDS011;44276;49.534;6.378;2023-03-14T06:36:35;4.95;;;0.73;;
53775;SDS011;44276;49.534;6.378;2023-03-14T06:39:03;9.10;;;0.68;;
53775;SDS011;44276;49.534;6.378;2023-03-14T06:41:33;7.35;;;0.77;;
53775;SDS011;44276;49.534;6.378;2023-03-14T06:44:01;3.65;;;0.98;;
53775;SDS011;44276;49.534;6.378;2023-03-14T06:46:29;3.63;;;0.90;;
53775;SDS011;44276;49.534;6.378;2023-03-14T06:48:57;4.38;;;0.95;;
53775;SDS011;44276;49.534;6.378;2023-03-14T06:51:25;3.15;;;0.80;;
53775;SDS011;44276;49.534;6.378;2023-03-14T06:53:53;6.15;;;1.27;;
53775;SDS011;44276;49.534;6.378;2023-03-14T06:56:21;4.10;;;1.05;;
53775;SDS011;44276;49.534;6.378;2023-03-14T06:58:51;2.22;;;1.02;;
53775;SDS011;44276;49.534;6.378;2023-03-14T07:01:20;4.97;;;0.77;;
53775;SDS011;44276;49.534;6.378;2023-03-14T07:03:53;3.38;;;0.65;;
53775;SDS011;44276;49.534;6.378;2023-03-14T07:06:22;2.08;;;0.77;;
53775;SDS011;44276;49.534;6.378;2023-03-14T07:08:51;4.30;;;0.55;;
53775;SDS011;44276;49.534;6.378;2023-03-14T07:11:19;2.53;;;0.40;;
53775;SDS011;44276;49.534;6.378;2023-03-14T07:13:47;5.07;;;0.77;;
53775;SDS011;44276;49.534;6.378;2023-03-14T07:16:16;7.85;;;2.30;;
53775;SDS011;44276;49.534;6.378;2023-03-14T07:18:45;6.22;;;1.63;;
53775;SDS011;44276;49.534;6.378;2023-03-14T07:21:13;2.20;;;0.50;;
53775;SDS011;44276;49.534;6.378;2023-03-14T07:23:41;5.10;;;0.77;;
53775;SDS011;44276;49.534;6.378;2023-03-14T07:26:09;12.98;;;0.68;;
53775;SDS011;44276;49.534;6.378;2023-03-14T07:28:37;3.13;;;0.50;;
53775;SDS011;44276;49.534;6.378;2023-03-14T07:31:05;2.40;;;0.60;;
53775;SDS011;44276;49.534;6.378;2023-03-14T07:33:36;4.28;;;1.00;;
53775;SDS011;44276;49.534;6.378;2023-03-14T07:36:04;0.73;;;0.65;;
53775;SDS011;44276;49.534;6.378;2023-03-14T07:38:33;1.23;;;0.30;;
53775;SDS011;44276;49.534;6.378;2023-03-14T07:41:02;2.90;;;0.40;;
53775;SDS011;44276;49.534;6.378;2023-03-14T07:43:33;1.08;;;0.30;;
53775;SDS011;44276;49.534;6.378;2023-03-14T07:46:01;2.40;;;0.30;;
53775;SDS011;44276;49.534;6.378;2023-03-14T07:48:29;4.55;;;0.55;;
53775;SDS011;44276;49.534;6.378;2023-03-14T07:50:59;2.17;;;0.35;;
53775;SDS011;44276;49.534;6.378;2023-03-14T07:53:27;3.45;;;0.35;;
53775;SDS011;44276;49.534;6.378;2023-03-14T07:55:55;3.15;;;0.95;;
53775;SDS011;44276;49.534;6.378;2023-03-14T07:58:23;3.60;;;0.30;;
53775;SDS011;44276;49.534;6.378;2023-03-14T08:00:52;2.35;;;0.50;;
53775;SDS011;44276;49.534;6.378;2023-03-14T08:03:20;2.83;;;0.35;;
53775;SDS011;44276;49.534;6.378;2023-03-14T08:05:48;0.30;;;0.20;;
53775;SDS011;44276;49.534;6.378;2023-03-14T08:08:19;1.65;;;0.40;;
53775;SDS011;44276;49.534;6.378;2023-03-14T08:10:47;1.63;;;0.30;;
53775;SDS011;44276;49.534;6.378;2023-03-14T08:13:15;1.75;;;0.57;;
53775;SDS011;44276;49.534;6.378;2023-03-14T08:15:46;0.32;;;0.20;;
53775;SDS011;44276;49.534;6.378;2023-03-14T08:18:17;0.90;;;0.50;;
53775;SDS011;44276;49.534;6.378;2023-03-14T08:20:45;0.95;;;0.20;;
53775;SDS011;44276;49.534;6.378;2023-03-14T08:23:13;2.50;;;0.90;;
53775;SDS011;44276;49.534;6.378;2023-03-14T08:25:42;0.20;;;0.10;;
53775;SDS011;44276;49.534;6.378;2023-03-14T08:28:10;4.15;;;0.30;;
53775;SDS011;44276;49.534;6.378;2023-03-14T08:30:38;0.40;;;0.30;;
53775;SDS011;44276;49.534;6.378;2023-03-14T08:33:09;2.85;;;0.25;;
53775;SDS011;44276;49.534;6.378;2023-03-14T08:35:37;2.33;;;0.40;;
53775;SDS011;44276;49.534;6.378;2023-03-14T08:38:06;0.98;;;0.10;;
53775;SDS011;44276;49.534;6.378;2023-03-14T08:40:34;2.58;;;0.30;;
53775;SDS011;44276;49.534;6.378;2023-03-14T08:43:03;1.02;;;0.50;;
53775;SDS011;44276;49.534;6.378;2023-03-14T08:45:31;2.05;;;0.30;;
53775;SDS011;44276;49.534;6.378;2023-03-14T08:47:59;0.95;;;0.20;;
53775;SDS011;44276;49.534;6.378;2023-03-14T08:50:27;2.47;;;0.85;;
53775;SDS011;44276;49.534;6.378;2023-03-14T08:52:55;0.65;;;0.20;;
53775;SDS011;44276;49.534;6.378;2023-03-14T08:55:26;1.35;;;0.38;;
53775;SDS011;44276;49.534;6.378;2023-03-14T08:57:54;1.20;;;0.30;;
53775;SDS011;44276;49.534;6.378;2023-03-14T09:00:24;0.38;;;0.10;;
53775;SDS011;44276;49.534;6.378;2023-03-14T09:02:52;0.00;;;0.00;;
53775;SDS011;44276;49.534;6.378;2023-03-14T09:05:20;0.55;;;0.10;;
53775;SDS011;44276;49.534;6.378;2023-03-14T09:07:48;0.52;;;0.52;;
53775;SDS011;44276;49.534;6.378;2023-03-14T09:10:16;0.20;;;0.10;;
53775;SDS011;44276;49.534;6.378;2023-03-14T09:12:44;0.68;;;0.50;;
53775;SDS011;44276;49.534;6.378;2023-03-14T09:15:12;0.77;;;0.10;;
53775;SDS011;44276;49.534;6.378;2023-03-14T09:17:43;0.43;;;0.10;;
53775;SDS011;44276;49.534;6.378;2023-03-14T09:20:11;0.32;;;0.30;;
53775;SDS011;44276;49.534;6.378;2023-03-14T09:22:40;0.20;;;0.20;;
53775;SDS011;44276;49.534;6.378;2023-03-14T09:25:08;0.55;;;0.40;;
53775;SDS011;44276;49.534;6.378;2023-03-14T09:27:37;0.47;;;0.32;;
53775;SDS011;44276;49.534;6.378;2023-03-14T09:30:06;0.85;;;0.40;;
53775;SDS011;44276;49.534;6.378;2023-03-14T09:32:37;2.28;;;0.43;;
53775;SDS011;44276;49.534;6.378;2023-03-14T09:35:07;0.40;;;0.38;;
53775;SDS011;44276;49.534;6.378;2023-03-14T09:37:36;4.78;;;0.70;;
53775;SDS011;44276;49.534;6.378;2023-03-14T09:40:05;1.20;;;0.60;;
53775;SDS011;44276;49.534;6.378;2023-03-14T09:42:38;0.13;;;0.13;;
53775;SDS011;44276;49.534;6.378;2023-03-14T09:45:09;0.40;;;0.30;;
53775;SDS011;44276;49.534;6.378;2023-03-14T09:47:44;0.85;;;0.20;;
53775;SDS011;44276;49.534;6.378;2023-03-14T09:50:26;0.10;;;0.10;;
53775;SDS011;44276;49.534;6.378;2023-03-14T09:53:05;0.20;;;0.20;;
53775;SDS011;44276;49.534;6.378;2023-03-14T09:55:40;0.20;;;0.10;;
53775;SDS011;44276;49.534;6.378;2023-03-14T09:58:13;0.17;;;0.17;;
53775;SDS011;44276;49.534;6.378;2023-03-14T10:00:45;0.00;;;0.00;;
53775;SDS011;44276;49.534;6.378;2023-03-14T10:03:21;0.20;;;0.20;;
53775;SDS011;44276;49.534;6.378;2023-03-14T10:05:59;0.13;;;0.00;;
53775;SDS011;44276;49.534;6.378;2023-03-14T10:08:28;0.15;;;0.10;;
53775;SDS011;44276;49.534;6.378;2023-03-14T10:10:56;0.00;;;0.00;;
53775;SDS011;44276;49.534;6.378;2023-03-14T10:13:26;0.20;;;0.10;;
53775;SDS011;44276;49.534;6.378;2023-03-14T10:18:23;0.00;;;0.00;;
53775;SDS011;44276;49.534;6.378;2023-03-14T10:21:04;0.13;;;0.10;;
53775;SDS011;44276;49.534;6.378;2023-03-14T10:23:45;0.28;;;0.28;;
53775;SDS011;44276;49.534;6.378;2023-03-14T10:26:15;0.47;;;0.20;;
53775;SDS011;44276;49.534;6.378;2023-03-14T10:28:46;0.50;;;0.30;;
53775;SDS011;44276;49.534;6.378;2023-03-14T10:31:19;3.50;;;0.77;;
53775;SDS011;44276;49.534;6.378;2023-03-14T10:33:59;0.80;;;0.20;;
53775;SDS011;44276;49.534;6.378;2023-03-14T10:36:32;0.65;;;0.55;;
53775;SDS011;44276;49.534;6.378;2023-03-14T10:39:15;5.18;;;1.05;;
53775;SDS011;44276;49.534;6.378;2023-03-14T10:41:54;0.40;;;0.35;;
53775;SDS011;44276;49.534;6.378;2023-03-14T10:44:35;1.58;;;0.40;;
53775;SDS011;44276;49.534;6.378;2023-03-14T10:47:06;4.03;;;0.75;;
53775;SDS011;44276;49.534;6.378;2023-03-14T10:49:44;0.30;;;0.28;;
53775;SDS011;44276;49.534;6.378;2023-03-14T10:52:23;1.90;;;0.40;;
53775;SDS011;44276;49.534;6.378;2023-03-14T10:55:14;2.45;;;0.40;;
53775;SDS011;44276;49.534;6.378;2023-03-14T10:57:42;1.35;;;0.38;;
53775;SDS011;44276;49.534;6.378;2023-03-14T11:00:14;3.20;;;0.52;;
53775;SDS011;44276;49.534;6.378;2023-03-14T11:02:58;2.38;;;0.40;;
53775;SDS011;44276;49.534;6.378;2023-03-14T11:05:38;1.58;;;0.50;;
53775;SDS011;44276;49.534;6.378;2023-03-14T11:08:17;1.50;;;0.70;;
53775;SDS011;44276;49.534;6.378;2023-03-14T11:10:54;3.20;;;0.50;;
53775;SDS011;44276;49.534;6.378;2023-03-14T11:16:06;0.50;;;0.20;;
53775;SDS011;44276;49.534;6.378;2023-03-14T11:18:48;6.65;;;0.70;;
53775;SDS011;44276;49.534;6.378;2023-03-14T11:21:43;4.60;;;1.25;;
53775;SDS011;44276;49.534;6.378;2023-03-14T11:24:27;1.05;;;0.40;;
53775;SDS011;44276;49.534;6.378;2023-03-14T11:27:25;1.98;;;0.30;;
53775;SDS011;44276;49.534;6.378;2023-03-14T11:30:14;1.50;;;0.40;;
53775;SDS011;44276;49.534;6.378;2023-03-14T11:32:50;0.60;;;0.30;;
53775;SDS011;44276;49.534;6.378;2023-03-14T11:35:30;2.17;;;0.40;;
53775;SDS011;44276;49.534;6.378;2023-03-14T11:38:05;1.48;;;0.60;;
53775;SDS011;44276;49.534;6.378;2023-03-14T11:40:44;0.75;;;0.20;;
53775;SDS011;44276;49.534;6.378;2023-03-14T11:43:20;1.73;;;1.00;;
53775;SDS011;44276;49.534;6.378;2023-03-14T11:45:58;0.28;;;0.00;;
53775;SDS011;44276;49.534;6.378;2023-03-14T11:48:36;2.03;;;0.40;;
53775;SDS011;44276;49.534;6.378;2023-03-14T11:51:12;5.70;;;0.35;;
53775;SDS011;44276;49.534;6.378;2023-03-14T11:53:53;1.30;;;0.30;;
53775;SDS011;44276;49.534;6.378;2023-03-14T11:56:33;1.08;;;0.30;;
53775;SDS011;44276;49.534;6.378;2023-03-14T11:59:12;1.30;;;0.80;;
53775;SDS011;44276;49.534;6.378;2023-03-14T12:01:54;0.30;;;0.30;;
53775;SDS011;44276;49.534;6.378;2023-03-14T12:04:35;3.67;;;0.35;;
53775;SDS011;44276;49.534;6.378;2023-03-14T12:07:21;1.50;;;0.50;;
53775;SDS011;44276;49.534;6.378;2023-03-14T12:10:01;3.30;;;0.63;;
53775;SDS011;44276;49.534;6.378;2023-03-14T12:12:32;0.55;;;0.40;;
53775;SDS011;44276;49.534;6.378;2023-03-14T12:15:01;0.55;;;0.30;;
53775;SDS011;44276;49.534;6.378;2023-03-14T12:17:38;4.15;;;0.60;;
53775;SDS011;44276;49.534;6.378;2023-03-14T12:20:15;1.70;;;0.30;;
53775;SDS011;44276;49.534;6.378;2023-03-14T12:22:47;0.70;;;0.10;;
53775;SDS011;44276;49.534;6.378;2023-03-14T12:25:19;3.08;;;0.60;;
53775;SDS011;44276;49.534;6.378;2023-03-14T12:30:57;0.88;;;0.50;;
53775;SDS011;44276;49.534;6.378;2023-03-14T12:40:12;2.47;;;0.68;;
53775;SDS011;44276;49.534;6.378;2023-03-14T12:42:54;0.82;;;0.40;;
53775;SDS011;44276;49.534;6.378;2023-03-14T12:48:03;2.17;;;0.40;;
53775;SDS011;44276;49.534;6.378;2023-03-14T12:50:40;3.40;;;0.52;;
53775;SDS011;44276;49.534;6.378;2023-03-14T12:53:33;2.72;;;0.30;;
53775;SDS011;44276;49.534;6.378;2023-03-14T12:56:44;1.52;;;0.57;;
53775;SDS011;44276;49.534;6.378;2023-03-14T12:59:30;3.20;;;0.50;;
53775;SDS011;44276;49.534;6.378;2023-03-14T13:02:28;3.05;;;0.40;;
53775;SDS011;44276;49.534;6.378;2023-03-14T13:05:18;2.28;;;0.50;;
53775;SDS011;44276;49.534;6.378;2023-03-14T13:08:05;4.07;;;0.80;;
53775;SDS011;44276;49.534;6.378;2023-03-14T13:10:42;1.40;;;0.38;;
53775;SDS011;44276;49.534;6.378;2023-03-14T13:13:19;1.10;;;0.40;;
53775;SDS011;44276;49.534;6.378;2023-03-14T13:15:53;3.83;;;1.00;;
53775;SDS011;44276;49.534;6.378;2023-03-14T13:18:28;6.38;;;0.65;;
53775;SDS011;44276;49.534;6.378;2023-03-14T13:21:03;4.43;;;1.10;;
53775;SDS011;44276;49.534;6.378;2023-03-14T13:26:09;2.92;;;0.40;;
53775;SDS011;44276;49.534;6.378;2023-03-14T13:28:41;1.95;;;0.55;;
53775;SDS011;44276;49.534;6.378;2023-03-14T13:31:22;1.77;;;0.30;;
53775;SDS011;44276;49.534;6.378;2023-03-14T13:33:58;2.58;;;0.70;;
53775;SDS011;44276;49.534;6.378;2023-03-14T13:36:27;2.15;;;0.68;;
53775;SDS011;44276;49.534;6.378;2023-03-14T13:38:56;0.80;;;0.25;;
53775;SDS011;44276;49.534;6.378;2023-03-14T13:41:26;6.55;;;0.90;;
53775;SDS011;44276;49.534;6.378;2023-03-14T13:43:58;6.43;;;0.60;;
53775;SDS011;44276;49.534;6.378;2023-03-14T13:46:33;1.45;;;0.30;;
53775;SDS011;44276;49.534;6.378;2023-03-14T13:49:05;2.20;;;0.50;;
53775;SDS011;44276;49.534;6.378;2023-03-14T13:51:39;4.00;;;0.65;;
53775;SDS011;44276;49.534;6.378;2023-03-14T13:54:13;6.95;;;1.33;;
53775;SDS011;44276;49.534;6.378;2023-03-14T13:56:43;4.38;;;1.15;;
53775;SDS011;44276;49.534;6.378;2023-03-14T13:59:21;1.65;;;0.30;;
53775;SDS011;44276;49.534;6.378;2023-03-14T14:01:50;1.52;;;0.50;;
53775;SDS011;44276;49.534;6.378;2023-03-14T14:04:22;2.78;;;0.73;;
53775;SDS011;44276;49.534;6.378;2023-03-14T14:06:54;1.55;;;0.65;;
53775;SDS011;44276;49.534;6.378;2023-03-14T14:09:25;6.03;;;0.80;;
53775;SDS011;44276;49.534;6.378;2023-03-14T14:11:58;7.45;;;0.60;;
53775;SDS011;44276;49.534;6.378;2023-03-14T14:14:42;1.20;;;0.52;;
53775;SDS011;44276;49.534;6.378;2023-03-14T14:17:19;0.90;;;0.38;;
53775;SDS011;44276;49.534;6.378;2023-03-14T14:19:55;5.90;;;1.85;;
53775;SDS011;44276;49.534;6.378;2023-03-14T14:22:25;5.90;;;1.48;;
53775;SDS011;44276;49.534;6.378;2023-03-14T14:24:54;0.70;;;0.30;;
53775;SDS011;44276;49.534;6.378;2023-03-14T14:27:24;2.45;;;0.20;;
53775;SDS011;44276;49.534;6.378;2023-03-14T14:29:59;3.45;;;0.60;;
53775;SDS011;44276;49.534;6.378;2023-03-14T14:32:34;6.55;;;0.80;;
53775;SDS011;44276;49.534;6.378;2023-03-14T14:35:06;2.10;;;0.75;;
53775;SDS011;44276;49.534;6.378;2023-03-14T14:37:48;4.00;;;0.80;;
53775;SDS011;44276;49.534;6.378;2023-03-14T14:40:18;2.15;;;0.40;;
53775;SDS011;44276;49.534;6.378;2023-03-14T14:42:49;4.10;;;1.08;;
53775;SDS011;44276;49.534;6.378;2023-03-14T14:45:19;10.38;;;1.15;;
53775;SDS011;44276;49.534;6.378;2023-03-14T14:47:50;4.60;;;0.60;;
53775;SDS011;44276;49.534;6.378;2023-03-14T14:50:29;3.90;;;0.80;;
53775;SDS011;44276;49.534;6.378;2023-03-14T14:53:00;3.88;;;0.45;;
53775;SDS011;44276;49.534;6.378;2023-03-14T14:55:49;4.45;;;0.93;;
53775;SDS011;44276;49.534;6.378;2023-03-14T14:58:20;10.32;;;1.02;;
53775;SDS011;44276;49.534;6.378;2023-03-14T15:00:53;3.42;;;0.80;;
53775;SDS011;44276;49.534;6.378;2023-03-14T15:03:26;4.25;;;0.95;;
53775;SDS011;44276;49.534;6.378;2023-03-14T15:05:58;3.50;;;0.52;;
53775;SDS011;44276;49.534;6.378;2023-03-14T15:08:27;2.92;;;0.50;;
53775;SDS011;44276;49.534;6.378;2023-03-14T15:10:57;3.15;;;1.13;;
53775;SDS011;44276;49.534;6.378;2023-03-14T15:13:25;3.55;;;0.75;;
53775;SDS011;44276;49.534;6.378;2023-03-14T15:15:53;1.48;;;0.80;;
53775;SDS011;44276;49.534;6.378;2023-03-14T15:18:24;1.25;;;0.35;;
53775;SDS011;44276;49.534;6.378;2023-03-14T15:20:56;1.13;;;0.40;;
53775;SDS011;44276;49.534;6.378;2023-03-14T15:23:26;3.60;;;0.57;;
53775;SDS011;44276;49.534;6.378;2023-03-14T15:25:54;1.42;;;0.85;;
53775;SDS011;44276;49.534;6.378;2023-03-14T15:28:23;3.92;;;0.95;;
53775;SDS011;44276;49.534;6.378;2023-03-14T15:30:54;5.65;;;0.75;;
53775;SDS011;44276;49.534;6.378;2023-03-14T15:33:24;3.30;;;1.20;;
53775;SDS011;44276;49.534;6.378;2023-03-14T15:35:54;5.13;;;0.77;;
53775;SDS011;44276;49.534;6.378;2023-03-14T15:38:24;1.05;;;0.30;;
53775;SDS011;44276;49.534;6.378;2023-03-14T15:40:52;2.10;;;0.88;;
53775;SDS011;44276;49.534;6.378;2023-03-14T15:43:20;6.00;;;0.90;;